Crane — ZR3519 — position and weather

sailwx.info

Track history (hours):
 
Tides and Currents Weather Stations Pressure Air Temp Water Temp Dewpoint Dewpoint Depression Visibility Wind Speed Wind Dir Waves Ship Positions

Crane

Last reported at 2016-Feb-05 20:09 UTC. Time now 2016-Feb-06 20:44 UTC.
Position S 29°52' E 031°01'.

MMSI: 601085000.

Date/timePositionNaut miles runAvg speedWind from/ knotsBaromVisibWave heightAir tempDewpointWater temp
2016-Feb-05 20:09S 29°52' E 031°01'2 4.0
2016-Feb-05 19:34S 29°52' E 031°03'3 2.8
2016-Feb-05 18:33S 29°53' E 031°07'5 5.0
2016-Feb-05 17:34S 29°52' E 031°01'  
2016-Feb-03 08:14S 29°52' E 031°01'0 0.0
2016-Feb-03 07:33S 29°52' E 031°01'0 0.0
2016-Feb-03 01:34S 29°52' E 031°01'5 5.4
2016-Feb-03 00:34S 29°52' E 031°07'3 3.0
2016-Feb-02 23:34S 29°52' E 031°04'2 2.5
2016-Feb-02 22:34S 29°52' E 031°01'0 0.0
2016-Feb-02 07:33S 29°52' E 031°01'5 4.9
2016-Feb-02 06:33S 29°54' E 031°06'5 0.1
2016-Jan-31 07:29S 29°52' E 031°01'2 2.0
2016-Jan-31 06:33S 29°53' E 031°03'2 2.0
2016-Jan-31 05:33S 29°52' E 031°05'4 3.7
2016-Jan-31 04:33S 29°52' E 031°01'2 0.1
2016-Jan-30 00:33S 29°52' E 031°04'0 0.4
2016-Jan-29 23:33S 29°52' E 031°04'3 0.1
2016-Jan-29 02:33S 29°52' E 031°01'4 4.3
2016-Jan-29 01:34S 29°52' E 031°06'3 3.3
2016-Jan-29 00:34S 29°52' E 031°02'1 0.1
2016-Jan-28 10:33S 29°52' E 031°01'5 5.0
2016-Jan-28 09:33S 29°53' E 031°06'4 3.5
2016-Jan-28 08:33S 29°53' E 031°02'1 0.2
2016-Jan-28 01:05S 29°52' E 031°01'0 0.0
2016-Jan-28 00:33S 29°52' E 031°01'0 0.0
2016-Jan-27 23:33S 29°52' E 031°01'0 0.0
2016-Jan-27 22:33S 29°52' E 031°01'0 0.0
2016-Jan-27 21:33S 29°52' E 031°01'2 2.3
2016-Jan-27 20:33S 29°52' E 031°03'4 4.2
2016-Jan-27 19:33S 29°52' E 031°08'3 3.3
2016-Jan-27 18:33S 29°52' E 031°04'2 2.4
2016-Jan-27 17:33S 29°52' E 031°02'  
Track history (hours):
 
Tides and Currents Weather Stations Pressure Air Temp Water Temp Dewpoint Dewpoint Depression Visibility Wind Speed Wind Dir Waves Ship Positions

Crane

Last reported at 2016-Feb-05 20:09 UTC. Time now 2016-Feb-06 20:44 UTC.
Position S 29°52' E 031°01'.

MMSI: 601085000.

Date/timePositionNaut miles runAvg speedWind from/ knotsBaromVisibWave heightAir tempDewpointWater temp
2016-Feb-05 20:09S 29°52' E 031°01'2 4.0
2016-Feb-05 19:34S 29°52' E 031°03'3 2.8
2016-Feb-05 18:33S 29°53' E 031°07'5 5.0
2016-Feb-05 17:34S 29°52' E 031°01'  
2016-Feb-03 08:14S 29°52' E 031°01'0 0.0
2016-Feb-03 07:33S 29°52' E 031°01'0 0.0
2016-Feb-03 01:34S 29°52' E 031°01'5 5.4
2016-Feb-03 00:34S 29°52' E 031°07'3 3.0
2016-Feb-02 23:34S 29°52' E 031°04'2 2.5
2016-Feb-02 22:34S 29°52' E 031°01'0 0.0
2016-Feb-02 07:33S 29°52' E 031°01'5 4.9
2016-Feb-02 06:33S 29°54' E 031°06'5 0.1
2016-Jan-31 07:29S 29°52' E 031°01'2 2.0
2016-Jan-31 06:33S 29°53' E 031°03'2 2.0
2016-Jan-31 05:33S 29°52' E 031°05'4 3.7
2016-Jan-31 04:33S 29°52' E 031°01'2 0.1
2016-Jan-30 00:33S 29°52' E 031°04'0 0.4
2016-Jan-29 23:33S 29°52' E 031°04'3 0.1
2016-Jan-29 02:33S 29°52' E 031°01'4 4.3
2016-Jan-29 01:34S 29°52' E 031°06'3 3.3
2016-Jan-29 00:34S 29°52' E 031°02'1 0.1
2016-Jan-28 10:33S 29°52' E 031°01'5 5.0
2016-Jan-28 09:33S 29°53' E 031°06'4 3.5
2016-Jan-28 08:33S 29°53' E 031°02'1 0.2
2016-Jan-28 01:05S 29°52' E 031°01'0 0.0
2016-Jan-28 00:33S 29°52' E 031°01'0 0.0
2016-Jan-27 23:33S 29°52' E 031°01'0 0.0
2016-Jan-27 22:33S 29°52' E 031°01'0 0.0
2016-Jan-27 21:33S 29°52' E 031°01'2 2.3
2016-Jan-27 20:33S 29°52' E 031°03'4 4.2
2016-Jan-27 19:33S 29°52' E 031°08'3 3.3
2016-Jan-27 18:33S 29°52' E 031°04'2 2.4
2016-Jan-27 17:33S 29°52' E 031°02'  

Dump ship's entire track history